sensor_id;sensor_type;location;lat;lon;timestamp;P1;durP1;ratioP1;P2;durP2;ratioP2
15398;SDS011;7797;51.428;6.756;2023-04-08T00:00:28;15.73;;;14.17;;
15398;SDS011;7797;51.428;6.756;2023-04-08T00:02:54;15.87;;;14.37;;
15398;SDS011;7797;51.428;6.756;2023-04-08T00:05:22;15.67;;;14.17;;
15398;SDS011;7797;51.428;6.756;2023-04-08T00:07:48;16.37;;;14.13;;
15398;SDS011;7797;51.428;6.756;2023-04-08T00:10:15;15.53;;;13.93;;
15398;SDS011;7797;51.428;6.756;2023-04-08T00:12:42;16.50;;;14.80;;
15398;SDS011;7797;51.428;6.756;2023-04-08T00:15:09;16.20;;;14.60;;
15398;SDS011;7797;51.428;6.756;2023-04-08T00:17:35;15.30;;;13.80;;
15398;SDS011;7797;51.428;6.756;2023-04-08T00:20:02;15.63;;;14.03;;
15398;SDS011;7797;51.428;6.756;2023-04-08T00:22:30;14.77;;;13.27;;
15398;SDS011;7797;51.428;6.756;2023-04-08T00:24:57;15.17;;;13.67;;
15398;SDS011;7797;51.428;6.756;2023-04-08T00:27:24;16.37;;;14.77;;
15398;SDS011;7797;51.428;6.756;2023-04-08T00:29:51;15.87;;;14.37;;
15398;SDS011;7797;51.428;6.756;2023-04-08T00:32:17;15.27;;;13.77;;
15398;SDS011;7797;51.428;6.756;2023-04-08T00:34:44;15.13;;;13.63;;
15398;SDS011;7797;51.428;6.756;2023-04-08T00:37:11;15.13;;;13.63;;
15398;SDS011;7797;51.428;6.756;2023-04-08T00:39:38;16.03;;;13.40;;
15398;SDS011;7797;51.428;6.756;2023-04-08T00:42:04;15.17;;;13.60;;
15398;SDS011;7797;51.428;6.756;2023-04-08T00:44:32;15.07;;;13.57;;
15398;SDS011;7797;51.428;6.756;2023-04-08T00:46:58;15.57;;;13.90;;
15398;SDS011;7797;51.428;6.756;2023-04-08T00:49:25;14.80;;;13.30;;
15398;SDS011;7797;51.428;6.756;2023-04-08T00:51:53;15.57;;;14.07;;
15398;SDS011;7797;51.428;6.756;2023-04-08T00:54:20;14.87;;;13.37;;
15398;SDS011;7797;51.428;6.756;2023-04-08T00:56:47;15.07;;;13.57;;
15398;SDS011;7797;51.428;6.756;2023-04-08T00:59:16;15.13;;;13.63;;
15398;SDS011;7797;51.428;6.756;2023-04-08T01:01:49;16.77;;;14.97;;
15398;SDS011;7797;51.428;6.756;2023-04-08T01:06:56;15.73;;;14.23;;
15398;SDS011;7797;51.428;6.756;2023-04-08T01:09:27;15.40;;;13.80;;
15398;SDS011;7797;51.428;6.756;2023-04-08T01:11:55;16.33;;;14.63;;
15398;SDS011;7797;51.428;6.756;2023-04-08T01:14:24;16.30;;;14.60;;
15398;SDS011;7797;51.428;6.756;2023-04-08T01:16:56;16.17;;;14.50;;
15398;SDS011;7797;51.428;6.756;2023-04-08T01:19:31;15.33;;;13.83;;
15398;SDS011;7797;51.428;6.756;2023-04-08T01:22:01;15.47;;;13.97;;
15398;SDS011;7797;51.428;6.756;2023-04-08T01:24:32;15.87;;;14.37;;
15398;SDS011;7797;51.428;6.756;2023-04-08T01:27:02;15.77;;;14.07;;
15398;SDS011;7797;51.428;6.756;2023-04-08T01:29:29;16.20;;;14.50;;
15398;SDS011;7797;51.428;6.756;2023-04-08T01:31:56;16.70;;;14.47;;
15398;SDS011;7797;51.428;6.756;2023-04-08T01:34:24;16.33;;;14.73;;
15398;SDS011;7797;51.428;6.756;2023-04-08T01:36:54;15.90;;;14.17;;
15398;SDS011;7797;51.428;6.756;2023-04-08T01:39:23;15.80;;;14.30;;
15398;SDS011;7797;51.428;6.756;2023-04-08T01:41:51;15.73;;;14.13;;
15398;SDS011;7797;51.428;6.756;2023-04-08T01:44:19;16.40;;;14.20;;
15398;SDS011;7797;51.428;6.756;2023-04-08T01:46:47;16.57;;;14.80;;
15398;SDS011;7797;51.428;6.756;2023-04-08T01:49:15;15.17;;;13.63;;
15398;SDS011;7797;51.428;6.756;2023-04-08T01:51:42;16.53;;;14.93;;
15398;SDS011;7797;51.428;6.756;2023-04-08T01:54:10;15.57;;;14.07;;
15398;SDS011;7797;51.428;6.756;2023-04-08T01:56:37;14.90;;;13.47;;
15398;SDS011;7797;51.428;6.756;2023-04-08T01:59:05;15.10;;;13.70;;
15398;SDS011;7797;51.428;6.756;2023-04-08T02:01:36;15.77;;;14.17;;
15398;SDS011;7797;51.428;6.756;2023-04-08T02:04:04;16.50;;;14.87;;
15398;SDS011;7797;51.428;6.756;2023-04-08T02:06:31;16.73;;;15.03;;
15398;SDS011;7797;51.428;6.756;2023-04-08T02:08:58;15.60;;;13.97;;
15398;SDS011;7797;51.428;6.756;2023-04-08T02:11:26;15.43;;;13.83;;
15398;SDS011;7797;51.428;6.756;2023-04-08T02:13:53;17.30;;;15.27;;
15398;SDS011;7797;51.428;6.756;2023-04-08T02:19:01;16.50;;;14.90;;
15398;SDS011;7797;51.428;6.756;2023-04-08T02:21:43;16.97;;;15.27;;
15398;SDS011;7797;51.428;6.756;2023-04-08T02:24:12;20.57;;;16.53;;
15398;SDS011;7797;51.428;6.756;2023-04-08T02:26:39;17.73;;;15.63;;
15398;SDS011;7797;51.428;6.756;2023-04-08T02:29:07;17.97;;;16.07;;
15398;SDS011;7797;51.428;6.756;2023-04-08T02:31:39;18.17;;;16.13;;
15398;SDS011;7797;51.428;6.756;2023-04-08T02:34:07;19.97;;;15.17;;
15398;SDS011;7797;51.428;6.756;2023-04-08T02:36:35;17.13;;;15.33;;
15398;SDS011;7797;51.428;6.756;2023-04-08T02:39:04;17.23;;;15.50;;
15398;SDS011;7797;51.428;6.756;2023-04-08T02:41:30;17.13;;;15.33;;
15398;SDS011;7797;51.428;6.756;2023-04-08T02:43:57;17.33;;;14.87;;
15398;SDS011;7797;51.428;6.756;2023-04-08T02:46:24;16.93;;;15.13;;
15398;SDS011;7797;51.428;6.756;2023-04-08T02:48:51;18.03;;;16.07;;
15398;SDS011;7797;51.428;6.756;2023-04-08T02:51:18;16.83;;;15.03;;
15398;SDS011;7797;51.428;6.756;2023-04-08T02:53:45;16.30;;;14.67;;
15398;SDS011;7797;51.428;6.756;2023-04-08T02:56:12;16.73;;;15.03;;
15398;SDS011;7797;51.428;6.756;2023-04-08T02:58:39;15.40;;;13.90;;
15398;SDS011;7797;51.428;6.756;2023-04-08T03:01:07;16.53;;;14.70;;
15398;SDS011;7797;51.428;6.756;2023-04-08T03:03:34;17.47;;;15.33;;
15398;SDS011;7797;51.428;6.756;2023-04-08T03:06:02;17.53;;;15.60;;
15398;SDS011;7797;51.428;6.756;2023-04-08T03:08:29;17.17;;;15.43;;
15398;SDS011;7797;51.428;6.756;2023-04-08T03:10:56;17.90;;;16.10;;
15398;SDS011;7797;51.428;6.756;2023-04-08T03:13:22;17.13;;;15.33;;
15398;SDS011;7797;51.428;6.756;2023-04-08T03:15:49;17.23;;;15.50;;
15398;SDS011;7797;51.428;6.756;2023-04-08T03:18:16;16.70;;;15.00;;
15398;SDS011;7797;51.428;6.756;2023-04-08T03:20:43;16.73;;;15.03;;
15398;SDS011;7797;51.428;6.756;2023-04-08T03:23:09;17.27;;;15.47;;
15398;SDS011;7797;51.428;6.756;2023-04-08T03:25:36;17.83;;;15.93;;
15398;SDS011;7797;51.428;6.756;2023-04-08T03:28:03;18.03;;;16.13;;
15398;SDS011;7797;51.428;6.756;2023-04-08T03:30:30;17.37;;;15.47;;
15398;SDS011;7797;51.428;6.756;2023-04-08T03:32:57;18.17;;;16.03;;
15398;SDS011;7797;51.428;6.756;2023-04-08T03:35:24;19.83;;;17.53;;
15398;SDS011;7797;51.428;6.756;2023-04-08T03:37:50;18.10;;;16.23;;
15398;SDS011;7797;51.428;6.756;2023-04-08T03:40:17;17.43;;;15.50;;
15398;SDS011;7797;51.428;6.756;2023-04-08T03:42:44;18.30;;;16.23;;
15398;SDS011;7797;51.428;6.756;2023-04-08T03:45:11;17.93;;;16.03;;
15398;SDS011;7797;51.428;6.756;2023-04-08T03:47:38;18.47;;;16.57;;
15398;SDS011;7797;51.428;6.756;2023-04-08T03:50:05;18.00;;;16.10;;
15398;SDS011;7797;51.428;6.756;2023-04-08T03:52:32;17.83;;;15.90;;
15398;SDS011;7797;51.428;6.756;2023-04-08T03:54:59;20.80;;;18.23;;
15398;SDS011;7797;51.428;6.756;2023-04-08T03:57:26;19.00;;;17.03;;
15398;SDS011;7797;51.428;6.756;2023-04-08T03:59:53;18.57;;;16.70;;
15398;SDS011;7797;51.428;6.756;2023-04-08T04:02:20;18.07;;;16.17;;
15398;SDS011;7797;51.428;6.756;2023-04-08T04:04:46;17.67;;;15.77;;
15398;SDS011;7797;51.428;6.756;2023-04-08T04:07:13;18.53;;;15.77;;
15398;SDS011;7797;51.428;6.756;2023-04-08T04:09:40;18.20;;;16.30;;
15398;SDS011;7797;51.428;6.756;2023-04-08T04:12:07;17.37;;;15.57;;
15398;SDS011;7797;51.428;6.756;2023-04-08T04:14:34;18.17;;;14.97;;
15398;SDS011;7797;51.428;6.756;2023-04-08T04:17:01;17.93;;;15.70;;
15398;SDS011;7797;51.428;6.756;2023-04-08T04:19:31;18.80;;;16.77;;
15398;SDS011;7797;51.428;6.756;2023-04-08T04:21:58;18.73;;;16.67;;
15398;SDS011;7797;51.428;6.756;2023-04-08T04:24:24;17.20;;;15.40;;
15398;SDS011;7797;51.428;6.756;2023-04-08T04:26:51;18.20;;;16.30;;
15398;SDS011;7797;51.428;6.756;2023-04-08T04:29:18;17.03;;;15.23;;
15398;SDS011;7797;51.428;6.756;2023-04-08T04:31:44;17.57;;;15.77;;
15398;SDS011;7797;51.428;6.756;2023-04-08T04:34:11;17.03;;;15.30;;
15398;SDS011;7797;51.428;6.756;2023-04-08T04:36:38;17.57;;;15.80;;
15398;SDS011;7797;51.428;6.756;2023-04-08T04:39:05;18.70;;;16.67;;
15398;SDS011;7797;51.428;6.756;2023-04-08T04:41:31;19.27;;;16.47;;
15398;SDS011;7797;51.428;6.756;2023-04-08T04:43:58;20.50;;;16.90;;
15398;SDS011;7797;51.428;6.756;2023-04-08T04:46:25;19.27;;;17.20;;
15398;SDS011;7797;51.428;6.756;2023-04-08T04:48:52;18.93;;;16.93;;
15398;SDS011;7797;51.428;6.756;2023-04-08T04:51:18;20.33;;;16.50;;
15398;SDS011;7797;51.428;6.756;2023-04-08T04:53:45;18.93;;;16.93;;
15398;SDS011;7797;51.428;6.756;2023-04-08T04:56:13;18.83;;;16.83;;
15398;SDS011;7797;51.428;6.756;2023-04-08T04:58:40;19.00;;;16.77;;
15398;SDS011;7797;51.428;6.756;2023-04-08T05:01:07;21.63;;;18.20;;
15398;SDS011;7797;51.428;6.756;2023-04-08T05:03:34;20.97;;;18.13;;
15398;SDS011;7797;51.428;6.756;2023-04-08T05:06:00;21.17;;;18.87;;
15398;SDS011;7797;51.428;6.756;2023-04-08T05:08:27;23.00;;;19.70;;
15398;SDS011;7797;51.428;6.756;2023-04-08T05:10:54;23.57;;;19.47;;
15398;SDS011;7797;51.428;6.756;2023-04-08T05:13:21;23.73;;;18.87;;
15398;SDS011;7797;51.428;6.756;2023-04-08T05:15:48;27.20;;;20.70;;
15398;SDS011;7797;51.428;6.756;2023-04-08T05:18:15;28.07;;;21.17;;
15398;SDS011;7797;51.428;6.756;2023-04-08T05:20:42;26.47;;;20.27;;
15398;SDS011;7797;51.428;6.756;2023-04-08T05:23:08;41.00;;;20.40;;
15398;SDS011;7797;51.428;6.756;2023-04-08T05:25:35;30.77;;;22.50;;
15398;SDS011;7797;51.428;6.756;2023-04-08T05:28:02;31.77;;;21.50;;
15398;SDS011;7797;51.428;6.756;2023-04-08T05:30:29;39.67;;;20.60;;
15398;SDS011;7797;51.428;6.756;2023-04-08T05:32:56;126.07;;;19.37;;
15398;SDS011;7797;51.428;6.756;2023-04-08T05:35:25;28.30;;;20.93;;
15398;SDS011;7797;51.428;6.756;2023-04-08T05:37:52;26.67;;;20.20;;
15398;SDS011;7797;51.428;6.756;2023-04-08T05:40:19;65.73;;;20.20;;
15398;SDS011;7797;51.428;6.756;2023-04-08T05:42:46;38.23;;;20.83;;
15398;SDS011;7797;51.428;6.756;2023-04-08T05:45:13;42.33;;;21.33;;
15398;SDS011;7797;51.428;6.756;2023-04-08T05:47:40;50.90;;;20.67;;
15398;SDS011;7797;51.428;6.756;2023-04-08T05:50:06;37.20;;;21.67;;
15398;SDS011;7797;51.428;6.756;2023-04-08T05:52:33;26.53;;;19.60;;
15398;SDS011;7797;51.428;6.756;2023-04-08T05:55:00;32.53;;;21.70;;
15398;SDS011;7797;51.428;6.756;2023-04-08T05:57:27;33.87;;;22.90;;
15398;SDS011;7797;51.428;6.756;2023-04-08T05:59:54;62.07;;;20.47;;
15398;SDS011;7797;51.428;6.756;2023-04-08T06:02:21;56.73;;;19.93;;
15398;SDS011;7797;51.428;6.756;2023-04-08T06:04:48;28.53;;;20.97;;
15398;SDS011;7797;51.428;6.756;2023-04-08T06:07:15;40.90;;;23.03;;
15398;SDS011;7797;51.428;6.756;2023-04-08T06:09:42;43.10;;;23.90;;
15398;SDS011;7797;51.428;6.756;2023-04-08T06:12:10;44.47;;;23.83;;
15398;SDS011;7797;51.428;6.756;2023-04-08T06:14:37;53.43;;;23.70;;
15398;SDS011;7797;51.428;6.756;2023-04-08T06:17:03;56.57;;;24.40;;
15398;SDS011;7797;51.428;6.756;2023-04-08T06:19:30;64.07;;;24.90;;
15398;SDS011;7797;51.428;6.756;2023-04-08T06:21:57;69.07;;;25.70;;
15398;SDS011;7797;51.428;6.756;2023-04-08T06:24:25;67.97;;;29.20;;
15398;SDS011;7797;51.428;6.756;2023-04-08T06:26:52;57.47;;;26.00;;
15398;SDS011;7797;51.428;6.756;2023-04-08T06:29:19;53.40;;;26.80;;
15398;SDS011;7797;51.428;6.756;2023-04-08T06:31:49;61.97;;;26.93;;
15398;SDS011;7797;51.428;6.756;2023-04-08T06:34:16;57.70;;;27.23;;
15398;SDS011;7797;51.428;6.756;2023-04-08T06:36:43;62.40;;;27.73;;
15398;SDS011;7797;51.428;6.756;2023-04-08T06:39:10;53.87;;;28.37;;
15398;SDS011;7797;51.428;6.756;2023-04-08T06:41:36;66.97;;;29.20;;
15398;SDS011;7797;51.428;6.756;2023-04-08T06:44:03;61.40;;;30.80;;
15398;SDS011;7797;51.428;6.756;2023-04-08T06:46:30;73.20;;;30.97;;
15398;SDS011;7797;51.428;6.756;2023-04-08T06:48:57;60.60;;;30.53;;
15398;SDS011;7797;51.428;6.756;2023-04-08T06:51:24;72.10;;;31.93;;
15398;SDS011;7797;51.428;6.756;2023-04-08T06:53:51;73.63;;;32.07;;
15398;SDS011;7797;51.428;6.756;2023-04-08T06:56:17;70.27;;;30.93;;
15398;SDS011;7797;51.428;6.756;2023-04-08T06:58:46;75.97;;;33.07;;
15398;SDS011;7797;51.428;6.756;2023-04-08T07:01:13;70.27;;;31.33;;
15398;SDS011;7797;51.428;6.756;2023-04-08T07:03:41;64.33;;;29.80;;
15398;SDS011;7797;51.428;6.756;2023-04-08T07:06:09;67.13;;;29.80;;
15398;SDS011;7797;51.428;6.756;2023-04-08T07:08:35;68.20;;;31.33;;
15398;SDS011;7797;51.428;6.756;2023-04-08T07:11:03;68.73;;;29.50;;
15398;SDS011;7797;51.428;6.756;2023-04-08T07:13:30;52.23;;;28.03;;
15398;SDS011;7797;51.428;6.756;2023-04-08T07:15:57;49.47;;;26.70;;
15398;SDS011;7797;51.428;6.756;2023-04-08T07:18:24;53.13;;;27.73;;
15398;SDS011;7797;51.428;6.756;2023-04-08T07:20:51;51.53;;;27.30;;
15398;SDS011;7797;51.428;6.756;2023-04-08T07:23:19;60.50;;;27.03;;
15398;SDS011;7797;51.428;6.756;2023-04-08T07:25:46;54.17;;;28.67;;
15398;SDS011;7797;51.428;6.756;2023-04-08T07:28:13;57.80;;;29.50;;
15398;SDS011;7797;51.428;6.756;2023-04-08T07:30:40;47.20;;;24.50;;
15398;SDS011;7797;51.428;6.756;2023-04-08T07:33:07;47.23;;;25.47;;
15398;SDS011;7797;51.428;6.756;2023-04-08T07:35:33;40.07;;;23.80;;
15398;SDS011;7797;51.428;6.756;2023-04-08T07:38:00;42.73;;;22.87;;
15398;SDS011;7797;51.428;6.756;2023-04-08T07:40:27;35.30;;;20.73;;
15398;SDS011;7797;51.428;6.756;2023-04-08T07:42:54;35.40;;;22.33;;
15398;SDS011;7797;51.428;6.756;2023-04-08T07:45:20;34.50;;;20.93;;
15398;SDS011;7797;51.428;6.756;2023-04-08T07:47:47;25.33;;;17.37;;
15398;SDS011;7797;51.428;6.756;2023-04-08T07:50:14;24.47;;;17.13;;
15398;SDS011;7797;51.428;6.756;2023-04-08T07:52:41;31.13;;;19.87;;
15398;SDS011;7797;51.428;6.756;2023-04-08T07:55:08;32.30;;;20.97;;
15398;SDS011;7797;51.428;6.756;2023-04-08T07:57:35;34.93;;;21.57;;
15398;SDS011;7797;51.428;6.756;2023-04-08T08:00:02;36.27;;;21.23;;
15398;SDS011;7797;51.428;6.756;2023-04-08T08:02:30;36.43;;;21.20;;
15398;SDS011;7797;51.428;6.756;2023-04-08T08:04:57;37.93;;;23.17;;
15398;SDS011;7797;51.428;6.756;2023-04-08T08:07:26;47.30;;;27.57;;
15398;SDS011;7797;51.428;6.756;2023-04-08T08:09:53;50.07;;;28.60;;
15398;SDS011;7797;51.428;6.756;2023-04-08T08:12:20;51.63;;;26.90;;
15398;SDS011;7797;51.428;6.756;2023-04-08T08:14:47;50.07;;;28.73;;
15398;SDS011;7797;51.428;6.756;2023-04-08T08:17:14;56.87;;;29.07;;
15398;SDS011;7797;51.428;6.756;2023-04-08T08:19:40;57.20;;;29.23;;
15398;SDS011;7797;51.428;6.756;2023-04-08T08:22:07;73.43;;;33.57;;
15398;SDS011;7797;51.428;6.756;2023-04-08T08:24:34;72.03;;;33.30;;
15398;SDS011;7797;51.428;6.756;2023-04-08T08:27:01;74.17;;;34.03;;
15398;SDS011;7797;51.428;6.756;2023-04-08T08:29:29;78.33;;;34.37;;
15398;SDS011;7797;51.428;6.756;2023-04-08T08:31:56;85.57;;;35.67;;
15398;SDS011;7797;51.428;6.756;2023-04-08T08:34:23;81.13;;;36.63;;
15398;SDS011;7797;51.428;6.756;2023-04-08T08:36:50;78.90;;;37.60;;
15398;SDS011;7797;51.428;6.756;2023-04-08T08:39:16;86.03;;;36.97;;
15398;SDS011;7797;51.428;6.756;2023-04-08T08:41:43;82.77;;;36.27;;
15398;SDS011;7797;51.428;6.756;2023-04-08T08:44:10;79.53;;;36.93;;
15398;SDS011;7797;51.428;6.756;2023-04-08T08:46:42;87.10;;;37.67;;
15398;SDS011;7797;51.428;6.756;2023-04-08T08:49:10;90.83;;;39.57;;
15398;SDS011;7797;51.428;6.756;2023-04-08T08:51:38;79.97;;;36.83;;
15398;SDS011;7797;51.428;6.756;2023-04-08T08:54:06;78.30;;;36.57;;
15398;SDS011;7797;51.428;6.756;2023-04-08T08:56:33;80.03;;;36.70;;
15398;SDS011;7797;51.428;6.756;2023-04-08T08:59:00;80.27;;;39.60;;
15398;SDS011;7797;51.428;6.756;2023-04-08T09:01:31;75.67;;;39.10;;
15398;SDS011;7797;51.428;6.756;2023-04-08T09:04:20;76.50;;;39.20;;
15398;SDS011;7797;51.428;6.756;2023-04-08T09:06:49;70.90;;;37.93;;
15398;SDS011;7797;51.428;6.756;2023-04-08T09:09:16;74.50;;;38.40;;
15398;SDS011;7797;51.428;6.756;2023-04-08T09:11:44;71.83;;;36.73;;
15398;SDS011;7797;51.428;6.756;2023-04-08T09:14:19;60.07;;;34.07;;
15398;SDS011;7797;51.428;6.756;2023-04-08T09:16:47;60.33;;;32.87;;
15398;SDS011;7797;51.428;6.756;2023-04-08T09:19:14;53.43;;;31.33;;
15398;SDS011;7797;51.428;6.756;2023-04-08T09:21:41;52.17;;;30.97;;
15398;SDS011;7797;51.428;6.756;2023-04-08T09:24:09;55.03;;;31.87;;
15398;SDS011;7797;51.428;6.756;2023-04-08T09:26:36;52.83;;;31.67;;
15398;SDS011;7797;51.428;6.756;2023-04-08T09:31:53;42.83;;;27.77;;
15398;SDS011;7797;51.428;6.756;2023-04-08T09:34:22;38.87;;;26.33;;
15398;SDS011;7797;51.428;6.756;2023-04-08T09:36:49;38.50;;;26.83;;
15398;SDS011;7797;51.428;6.756;2023-04-08T09:39:17;33.73;;;25.70;;
15398;SDS011;7797;51.428;6.756;2023-04-08T09:41:44;35.30;;;24.87;;
15398;SDS011;7797;51.428;6.756;2023-04-08T09:44:20;31.27;;;23.67;;
15398;SDS011;7797;51.428;6.756;2023-04-08T09:46:56;28.47;;;24.13;;
15398;SDS011;7797;51.428;6.756;2023-04-08T09:49:36;26.07;;;22.83;;
15398;SDS011;7797;51.428;6.756;2023-04-08T09:55:00;26.00;;;22.30;;
15398;SDS011;7797;51.428;6.756;2023-04-08T09:57:39;27.07;;;22.07;;
15398;SDS011;7797;51.428;6.756;2023-04-08T10:00:14;22.90;;;20.57;;
15398;SDS011;7797;51.428;6.756;2023-04-08T10:05:53;20.97;;;17.87;;
15398;SDS011;7797;51.428;6.756;2023-04-08T10:08:25;21.67;;;16.80;;
15398;SDS011;7797;51.428;6.756;2023-04-08T10:10:52;18.63;;;15.90;;
15398;SDS011;7797;51.428;6.756;2023-04-08T10:13:20;17.10;;;15.03;;
15398;SDS011;7797;51.428;6.756;2023-04-08T10:15:48;16.90;;;15.10;;
15398;SDS011;7797;51.428;6.756;2023-04-08T10:23:12;15.23;;;13.63;;
15398;SDS011;7797;51.428;6.756;2023-04-08T10:25:43;15.33;;;12.80;;
15398;SDS011;7797;51.428;6.756;2023-04-08T10:33:12;14.00;;;12.50;;
15398;SDS011;7797;51.428;6.756;2023-04-08T10:35:47;14.07;;;12.27;;
15398;SDS011;7797;51.428;6.756;2023-04-08T10:38:16;13.57;;;12.23;;
15398;SDS011;7797;51.428;6.756;2023-04-08T10:40:44;14.13;;;12.63;;
15398;SDS011;7797;51.428;6.756;2023-04-08T10:43:12;13.03;;;11.50;;
15398;SDS011;7797;51.428;6.756;2023-04-08T10:45:39;11.70;;;10.60;;
15398;SDS011;7797;51.428;6.756;2023-04-08T10:48:25;11.93;;;10.17;;
15398;SDS011;7797;51.428;6.756;2023-04-08T10:50:55;11.53;;;10.07;;
15398;SDS011;7797;51.428;6.756;2023-04-08T10:53:34;10.60;;;9.60;;
15398;SDS011;7797;51.428;6.756;2023-04-08T10:56:05;11.60;;;9.10;;
15398;SDS011;7797;51.428;6.756;2023-04-08T10:58:36;9.23;;;8.33;;
15398;SDS011;7797;51.428;6.756;2023-04-08T11:01:13;10.07;;;9.03;;
15398;SDS011;7797;51.428;6.756;2023-04-08T11:03:41;10.20;;;9.23;;
15398;SDS011;7797;51.428;6.756;2023-04-08T11:06:08;10.30;;;8.97;;
15398;SDS011;7797;51.428;6.756;2023-04-08T11:08:35;10.80;;;9.30;;
15398;SDS011;7797;51.428;6.756;2023-04-08T11:11:02;10.10;;;9.03;;
15398;SDS011;7797;51.428;6.756;2023-04-08T11:13:30;9.93;;;8.93;;
15398;SDS011;7797;51.428;6.756;2023-04-08T11:15:58;9.73;;;8.80;;
15398;SDS011;7797;51.428;6.756;2023-04-08T11:18:25;10.40;;;9.30;;
15398;SDS011;7797;51.428;6.756;2023-04-08T11:20:52;10.83;;;9.73;;
15398;SDS011;7797;51.428;6.756;2023-04-08T11:23:19;10.50;;;9.50;;
15398;SDS011;7797;51.428;6.756;2023-04-08T11:25:48;10.23;;;9.17;;
15398;SDS011;7797;51.428;6.756;2023-04-08T11:28:15;10.17;;;9.17;;
15398;SDS011;7797;51.428;6.756;2023-04-08T11:30:42;10.37;;;9.23;;
15398;SDS011;7797;51.428;6.756;2023-04-08T11:33:09;11.00;;;9.27;;
15398;SDS011;7797;51.428;6.756;2023-04-08T11:35:40;10.03;;;9.03;;
15398;SDS011;7797;51.428;6.756;2023-04-08T11:38:08;8.97;;;8.07;;
15398;SDS011;7797;51.428;6.756;2023-04-08T11:40:35;9.53;;;8.53;;
15398;SDS011;7797;51.428;6.756;2023-04-08T11:43:12;9.17;;;8.27;;
15398;SDS011;7797;51.428;6.756;2023-04-08T11:45:40;9.07;;;7.80;;
15398;SDS011;7797;51.428;6.756;2023-04-08T11:48:11;10.20;;;8.80;;
15398;SDS011;7797;51.428;6.756;2023-04-08T11:50:40;8.90;;;8.03;;
15398;SDS011;7797;51.428;6.756;2023-04-08T11:53:25;9.60;;;8.57;;
15398;SDS011;7797;51.428;6.756;2023-04-08T11:55:52;9.53;;;8.37;;
15398;SDS011;7797;51.428;6.756;2023-04-08T11:58:18;10.17;;;8.60;;
15398;SDS011;7797;51.428;6.756;2023-04-08T12:00:45;9.77;;;8.73;;
15398;SDS011;7797;51.428;6.756;2023-04-08T12:03:12;9.57;;;8.57;;
15398;SDS011;7797;51.428;6.756;2023-04-08T12:05:39;9.20;;;8.30;;
15398;SDS011;7797;51.428;6.756;2023-04-08T12:08:06;9.37;;;8.07;;
15398;SDS011;7797;51.428;6.756;2023-04-08T12:10:33;8.83;;;8.03;;
15398;SDS011;7797;51.428;6.756;2023-04-08T12:13:00;8.83;;;7.27;;
15398;SDS011;7797;51.428;6.756;2023-04-08T12:15:27;7.00;;;6.30;;
15398;SDS011;7797;51.428;6.756;2023-04-08T12:17:53;7.23;;;6.53;;
15398;SDS011;7797;51.428;6.756;2023-04-08T12:20:21;7.00;;;6.30;;
15398;SDS011;7797;51.428;6.756;2023-04-08T12:22:48;6.23;;;5.73;;
15398;SDS011;7797;51.428;6.756;2023-04-08T12:25:14;7.73;;;5.57;;
15398;SDS011;7797;51.428;6.756;2023-04-08T12:27:41;5.77;;;5.13;;
15398;SDS011;7797;51.428;6.756;2023-04-08T12:30:08;5.57;;;5.07;;
15398;SDS011;7797;51.428;6.756;2023-04-08T12:32:35;6.47;;;5.87;;
15398;SDS011;7797;51.428;6.756;2023-04-08T12:35:02;6.03;;;5.50;;
15398;SDS011;7797;51.428;6.756;2023-04-08T12:37:29;5.90;;;4.97;;
15398;SDS011;7797;51.428;6.756;2023-04-08T12:39:58;8.17;;;6.10;;
15398;SDS011;7797;51.428;6.756;2023-04-08T12:42:25;5.73;;;5.13;;
15398;SDS011;7797;51.428;6.756;2023-04-08T12:44:53;5.47;;;4.70;;
15398;SDS011;7797;51.428;6.756;2023-04-08T12:47:20;5.10;;;4.70;;
15398;SDS011;7797;51.428;6.756;2023-04-08T12:49:48;5.63;;;4.67;;
15398;SDS011;7797;51.428;6.756;2023-04-08T12:52:15;6.67;;;5.30;;
15398;SDS011;7797;51.428;6.756;2023-04-08T12:54:43;5.30;;;4.80;;
15398;SDS011;7797;51.428;6.756;2023-04-08T12:57:10;5.50;;;4.97;;
15398;SDS011;7797;51.428;6.756;2023-04-08T12:59:37;5.90;;;5.30;;
15398;SDS011;7797;51.428;6.756;2023-04-08T13:02:05;5.80;;;5.30;;
15398;SDS011;7797;51.428;6.756;2023-04-08T13:04:33;5.80;;;5.20;;
15398;SDS011;7797;51.428;6.756;2023-04-08T13:07:00;5.97;;;5.47;;
15398;SDS011;7797;51.428;6.756;2023-04-08T13:09:30;5.60;;;5.10;;
15398;SDS011;7797;51.428;6.756;2023-04-08T13:11:57;5.63;;;5.13;;
15398;SDS011;7797;51.428;6.756;2023-04-08T13:14:24;6.17;;;5.53;;
15398;SDS011;7797;51.428;6.756;2023-04-08T13:16:50;6.50;;;5.90;;
15398;SDS011;7797;51.428;6.756;2023-04-08T13:19:18;6.17;;;5.57;;
15398;SDS011;7797;51.428;6.756;2023-04-08T13:21:44;6.57;;;5.97;;
15398;SDS011;7797;51.428;6.756;2023-04-08T13:24:11;6.23;;;5.57;;
15398;SDS011;7797;51.428;6.756;2023-04-08T13:26:38;6.67;;;6.07;;
15398;SDS011;7797;51.428;6.756;2023-04-08T13:29:05;6.50;;;5.90;;
15398;SDS011;7797;51.428;6.756;2023-04-08T13:31:32;6.40;;;5.73;;
15398;SDS011;7797;51.428;6.756;2023-04-08T13:33:58;6.23;;;5.63;;
15398;SDS011;7797;51.428;6.756;2023-04-08T13:36:25;6.63;;;5.90;;
15398;SDS011;7797;51.428;6.756;2023-04-08T13:38:54;6.63;;;6.03;;
15398;SDS011;7797;51.428;6.756;2023-04-08T13:41:21;8.47;;;6.10;;
15398;SDS011;7797;51.428;6.756;2023-04-08T13:43:48;7.10;;;6.30;;
15398;SDS011;7797;51.428;6.756;2023-04-08T13:46:15;7.30;;;6.63;;
15398;SDS011;7797;51.428;6.756;2023-04-08T13:48:43;7.00;;;6.13;;
15398;SDS011;7797;51.428;6.756;2023-04-08T13:51:11;7.47;;;6.77;;
15398;SDS011;7797;51.428;6.756;2023-04-08T13:53:38;9.77;;;7.30;;
15398;SDS011;7797;51.428;6.756;2023-04-08T13:56:04;9.33;;;7.00;;
15398;SDS011;7797;51.428;6.756;2023-04-08T13:58:31;7.53;;;6.83;;
15398;SDS011;7797;51.428;6.756;2023-04-08T14:00:58;8.00;;;7.00;;
15398;SDS011;7797;51.428;6.756;2023-04-08T14:03:25;7.00;;;6.30;;
15398;SDS011;7797;51.428;6.756;2023-04-08T14:05:53;7.63;;;6.93;;
15398;SDS011;7797;51.428;6.756;2023-04-08T14:08:20;8.70;;;8.00;;
15398;SDS011;7797;51.428;6.756;2023-04-08T14:10:51;7.77;;;6.77;;
15398;SDS011;7797;51.428;6.756;2023-04-08T14:13:18;7.73;;;6.93;;
15398;SDS011;7797;51.428;6.756;2023-04-08T14:15:45;8.60;;;7.80;;
15398;SDS011;7797;51.428;6.756;2023-04-08T14:18:15;9.13;;;8.27;;
15398;SDS011;7797;51.428;6.756;2023-04-08T14:20:45;8.50;;;7.80;;
15398;SDS011;7797;51.428;6.756;2023-04-08T14:23:11;9.27;;;8.43;;
15398;SDS011;7797;51.428;6.756;2023-04-08T14:25:38;8.97;;;8.17;;
15398;SDS011;7797;51.428;6.756;2023-04-08T14:28:06;8.40;;;7.53;;
15398;SDS011;7797;51.428;6.756;2023-04-08T14:30:33;7.90;;;7.20;;
15398;SDS011;7797;51.428;6.756;2023-04-08T14:33:01;7.27;;;6.67;;
15398;SDS011;7797;51.428;6.756;2023-04-08T14:35:28;8.87;;;7.47;;
15398;SDS011;7797;51.428;6.756;2023-04-08T14:37:55;9.30;;;8.37;;
15398;SDS011;7797;51.428;6.756;2023-04-08T14:40:22;10.03;;;8.67;;
15398;SDS011;7797;51.428;6.756;2023-04-08T14:42:49;9.30;;;8.40;;
15398;SDS011;7797;51.428;6.756;2023-04-08T14:45:15;9.20;;;8.37;;
15398;SDS011;7797;51.428;6.756;2023-04-08T14:47:42;8.70;;;7.93;;
15398;SDS011;7797;51.428;6.756;2023-04-08T14:50:09;8.50;;;7.70;;
15398;SDS011;7797;51.428;6.756;2023-04-08T14:52:37;9.50;;;8.50;;
15398;SDS011;7797;51.428;6.756;2023-04-08T14:55:04;9.27;;;8.37;;
15398;SDS011;7797;51.428;6.756;2023-04-08T14:57:31;9.90;;;8.97;;
15398;SDS011;7797;51.428;6.756;2023-04-08T14:59:58;9.17;;;8.30;;
15398;SDS011;7797;51.428;6.756;2023-04-08T15:02:24;9.77;;;8.20;;
15398;SDS011;7797;51.428;6.756;2023-04-08T15:04:51;8.93;;;8.03;;
15398;SDS011;7797;51.428;6.756;2023-04-08T15:07:18;8.60;;;7.80;;